sensor_id;sensor_type;location;lat;lon;timestamp;P1;durP1;ratioP1;P2;durP2;ratioP2
45136;SDS011;30894;51.740;19.498;2023-07-13T00:00:47;7.10;;;4.28;;
45136;SDS011;30894;51.740;19.498;2023-07-13T00:03:33;7.45;;;3.95;;
45136;SDS011;30894;51.740;19.498;2023-07-13T00:06:00;9.48;;;4.30;;
45136;SDS011;30894;51.740;19.498;2023-07-13T00:08:29;7.95;;;4.18;;
45136;SDS011;30894;51.740;19.498;2023-07-13T00:10:58;8.77;;;3.80;;
45136;SDS011;30894;51.740;19.498;2023-07-13T00:13:25;6.75;;;3.70;;
45136;SDS011;30894;51.740;19.498;2023-07-13T00:15:51;9.25;;;4.18;;
45136;SDS011;30894;51.740;19.498;2023-07-13T00:18:19;6.45;;;4.07;;
45136;SDS011;30894;51.740;19.498;2023-07-13T00:20:45;8.93;;;4.05;;
45136;SDS011;30894;51.740;19.498;2023-07-13T00:23:12;15.82;;;3.92;;
45136;SDS011;30894;51.740;19.498;2023-07-13T00:25:37;7.20;;;4.13;;
45136;SDS011;30894;51.740;19.498;2023-07-13T00:28:04;5.97;;;3.42;;
45136;SDS011;30894;51.740;19.498;2023-07-13T00:30:30;13.80;;;4.63;;
45136;SDS011;30894;51.740;19.498;2023-07-13T00:32:56;7.25;;;4.20;;
45136;SDS011;30894;51.740;19.498;2023-07-13T00:35:23;11.70;;;4.10;;
45136;SDS011;30894;51.740;19.498;2023-07-13T00:37:51;9.35;;;3.70;;
45136;SDS011;30894;51.740;19.498;2023-07-13T00:40:17;10.48;;;3.63;;
45136;SDS011;30894;51.740;19.498;2023-07-13T00:42:43;9.07;;;4.32;;
45136;SDS011;30894;51.740;19.498;2023-07-13T00:47:39;6.25;;;3.90;;
45136;SDS011;30894;51.740;19.498;2023-07-13T00:50:06;5.80;;;3.40;;
45136;SDS011;30894;51.740;19.498;2023-07-13T00:52:36;7.30;;;4.00;;
45136;SDS011;30894;51.740;19.498;2023-07-13T00:55:06;8.68;;;3.80;;
45136;SDS011;30894;51.740;19.498;2023-07-13T00:57:34;6.13;;;3.45;;
45136;SDS011;30894;51.740;19.498;2023-07-13T01:00:02;6.35;;;3.67;;
45136;SDS011;30894;51.740;19.498;2023-07-13T01:02:32;10.98;;;3.97;;
45136;SDS011;30894;51.740;19.498;2023-07-13T01:04:59;14.00;;;3.60;;
45136;SDS011;30894;51.740;19.498;2023-07-13T01:07:27;6.63;;;3.08;;
45136;SDS011;30894;51.740;19.498;2023-07-13T01:09:53;7.97;;;4.03;;
45136;SDS011;30894;51.740;19.498;2023-07-13T01:12:19;9.27;;;3.47;;
45136;SDS011;30894;51.740;19.498;2023-07-13T01:14:45;8.30;;;3.55;;
45136;SDS011;30894;51.740;19.498;2023-07-13T01:17:12;6.10;;;3.00;;
45136;SDS011;30894;51.740;19.498;2023-07-13T01:19:39;8.25;;;3.55;;
45136;SDS011;30894;51.740;19.498;2023-07-13T01:22:13;7.15;;;3.25;;
45136;SDS011;30894;51.740;19.498;2023-07-13T01:24:42;9.85;;;3.30;;
45136;SDS011;30894;51.740;19.498;2023-07-13T01:27:13;6.63;;;3.67;;
45136;SDS011;30894;51.740;19.498;2023-07-13T01:29:43;8.70;;;3.42;;
45136;SDS011;30894;51.740;19.498;2023-07-13T01:32:13;6.78;;;2.95;;
45136;SDS011;30894;51.740;19.498;2023-07-13T01:34:47;3.92;;;3.13;;
45136;SDS011;30894;51.740;19.498;2023-07-13T01:37:14;7.70;;;4.15;;
45136;SDS011;30894;51.740;19.498;2023-07-13T01:39:40;8.75;;;3.63;;
45136;SDS011;30894;51.740;19.498;2023-07-13T01:42:06;6.20;;;3.30;;
45136;SDS011;30894;51.740;19.498;2023-07-13T01:44:51;9.40;;;3.30;;
45136;SDS011;30894;51.740;19.498;2023-07-13T01:47:17;7.63;;;3.20;;
45136;SDS011;30894;51.740;19.498;2023-07-13T01:49:43;6.05;;;3.42;;
45136;SDS011;30894;51.740;19.498;2023-07-13T01:52:11;6.15;;;3.20;;
45136;SDS011;30894;51.740;19.498;2023-07-13T01:54:37;5.00;;;3.10;;
45136;SDS011;30894;51.740;19.498;2023-07-13T01:57:03;6.88;;;3.42;;
45136;SDS011;30894;51.740;19.498;2023-07-13T01:59:29;7.88;;;3.60;;
45136;SDS011;30894;51.740;19.498;2023-07-13T02:01:56;6.88;;;3.10;;
45136;SDS011;30894;51.740;19.498;2023-07-13T02:04:21;7.68;;;3.70;;
45136;SDS011;30894;51.740;19.498;2023-07-13T02:06:48;6.07;;;3.40;;
45136;SDS011;30894;51.740;19.498;2023-07-13T02:09:14;6.95;;;3.65;;
45136;SDS011;30894;51.740;19.498;2023-07-13T02:11:40;7.80;;;4.07;;
45136;SDS011;30894;51.740;19.498;2023-07-13T02:14:06;7.43;;;3.83;;
45136;SDS011;30894;51.740;19.498;2023-07-13T02:16:32;8.63;;;4.25;;
45136;SDS011;30894;51.740;19.498;2023-07-13T02:18:58;6.38;;;3.97;;
45136;SDS011;30894;51.740;19.498;2023-07-13T02:21:26;10.05;;;4.47;;
45136;SDS011;30894;51.740;19.498;2023-07-13T02:23:52;6.20;;;4.20;;
45136;SDS011;30894;51.740;19.498;2023-07-13T02:26:18;5.68;;;3.38;;
45136;SDS011;30894;51.740;19.498;2023-07-13T02:28:44;10.73;;;4.45;;
45136;SDS011;30894;51.740;19.498;2023-07-13T02:31:11;8.57;;;4.07;;
45136;SDS011;30894;51.740;19.498;2023-07-13T02:33:39;11.75;;;4.32;;
45136;SDS011;30894;51.740;19.498;2023-07-13T02:36:06;7.72;;;3.80;;
45136;SDS011;30894;51.740;19.498;2023-07-13T02:38:33;7.53;;;3.40;;
45136;SDS011;30894;51.740;19.498;2023-07-13T02:41:04;7.43;;;3.83;;
45136;SDS011;30894;51.740;19.498;2023-07-13T02:43:33;6.32;;;3.88;;
45136;SDS011;30894;51.740;19.498;2023-07-13T02:46:00;5.55;;;3.45;;
45136;SDS011;30894;51.740;19.498;2023-07-13T02:48:36;9.10;;;4.32;;
45136;SDS011;30894;51.740;19.498;2023-07-13T02:51:04;6.00;;;4.00;;
45136;SDS011;30894;51.740;19.498;2023-07-13T02:53:30;11.50;;;5.10;;
45136;SDS011;30894;51.740;19.498;2023-07-13T02:55:56;6.95;;;4.50;;
45136;SDS011;30894;51.740;19.498;2023-07-13T02:58:22;7.60;;;3.90;;
45136;SDS011;30894;51.740;19.498;2023-07-13T03:00:48;5.72;;;3.97;;
45136;SDS011;30894;51.740;19.498;2023-07-13T03:03:15;6.43;;;3.60;;
45136;SDS011;30894;51.740;19.498;2023-07-13T03:05:42;8.98;;;4.35;;
45136;SDS011;30894;51.740;19.498;2023-07-13T03:08:10;8.15;;;3.80;;
45136;SDS011;30894;51.740;19.498;2023-07-13T03:10:37;6.35;;;3.83;;
45136;SDS011;30894;51.740;19.498;2023-07-13T03:13:05;6.13;;;3.85;;
45136;SDS011;30894;51.740;19.498;2023-07-13T03:15:31;7.78;;;4.25;;
45136;SDS011;30894;51.740;19.498;2023-07-13T03:17:57;5.75;;;3.85;;
45136;SDS011;30894;51.740;19.498;2023-07-13T03:20:23;6.18;;;3.88;;
45136;SDS011;30894;51.740;19.498;2023-07-13T03:22:49;5.07;;;3.47;;
45136;SDS011;30894;51.740;19.498;2023-07-13T03:25:15;6.82;;;4.28;;
45136;SDS011;30894;51.740;19.498;2023-07-13T03:27:41;8.48;;;4.13;;
45136;SDS011;30894;51.740;19.498;2023-07-13T03:30:07;8.73;;;4.38;;
45136;SDS011;30894;51.740;19.498;2023-07-13T03:32:34;7.45;;;4.13;;
45136;SDS011;30894;51.740;19.498;2023-07-13T03:35:00;9.25;;;4.47;;
45136;SDS011;30894;51.740;19.498;2023-07-13T03:37:26;8.98;;;3.63;;
45136;SDS011;30894;51.740;19.498;2023-07-13T03:39:53;5.63;;;4.03;;
45136;SDS011;30894;51.740;19.498;2023-07-13T03:42:19;6.28;;;3.92;;
45136;SDS011;30894;51.740;19.498;2023-07-13T03:44:45;5.32;;;3.63;;
45136;SDS011;30894;51.740;19.498;2023-07-13T03:47:18;9.00;;;3.60;;
45136;SDS011;30894;51.740;19.498;2023-07-13T03:49:44;9.65;;;3.75;;
45136;SDS011;30894;51.740;19.498;2023-07-13T03:52:11;8.50;;;4.03;;
45136;SDS011;30894;51.740;19.498;2023-07-13T03:54:37;7.07;;;4.03;;
45136;SDS011;30894;51.740;19.498;2023-07-13T03:57:03;7.43;;;3.83;;
45136;SDS011;30894;51.740;19.498;2023-07-13T03:59:30;6.60;;;3.92;;
45136;SDS011;30894;51.740;19.498;2023-07-13T04:01:56;8.30;;;4.43;;
45136;SDS011;30894;51.740;19.498;2023-07-13T04:04:22;9.02;;;4.10;;
45136;SDS011;30894;51.740;19.498;2023-07-13T04:06:48;8.93;;;4.35;;
45136;SDS011;30894;51.740;19.498;2023-07-13T04:09:14;10.45;;;4.18;;
45136;SDS011;30894;51.740;19.498;2023-07-13T04:11:40;9.27;;;4.43;;
45136;SDS011;30894;51.740;19.498;2023-07-13T04:14:06;8.82;;;4.60;;
45136;SDS011;30894;51.740;19.498;2023-07-13T04:16:32;8.13;;;4.70;;
45136;SDS011;30894;51.740;19.498;2023-07-13T04:18:59;11.45;;;4.43;;
45136;SDS011;30894;51.740;19.498;2023-07-13T04:21:29;9.77;;;4.55;;
45136;SDS011;30894;51.740;19.498;2023-07-13T04:23:56;10.48;;;4.07;;
45136;SDS011;30894;51.740;19.498;2023-07-13T04:26:23;7.85;;;4.07;;
45136;SDS011;30894;51.740;19.498;2023-07-13T04:28:49;8.48;;;4.03;;
45136;SDS011;30894;51.740;19.498;2023-07-13T04:31:16;9.13;;;4.38;;
45136;SDS011;30894;51.740;19.498;2023-07-13T04:33:42;10.15;;;4.95;;
45136;SDS011;30894;51.740;19.498;2023-07-13T04:36:09;9.85;;;4.03;;
45136;SDS011;30894;51.740;19.498;2023-07-13T04:38:35;8.40;;;4.60;;
45136;SDS011;30894;51.740;19.498;2023-07-13T04:41:04;9.63;;;4.32;;
45136;SDS011;30894;51.740;19.498;2023-07-13T04:43:32;9.23;;;4.35;;
45136;SDS011;30894;51.740;19.498;2023-07-13T04:46:09;10.32;;;4.95;;
45136;SDS011;30894;51.740;19.498;2023-07-13T04:48:37;9.55;;;5.35;;
45136;SDS011;30894;51.740;19.498;2023-07-13T04:51:04;7.60;;;4.65;;
45136;SDS011;30894;51.740;19.498;2023-07-13T04:53:30;9.27;;;4.53;;
45136;SDS011;30894;51.740;19.498;2023-07-13T04:56:00;9.45;;;4.60;;
45136;SDS011;30894;51.740;19.498;2023-07-13T04:58:26;9.05;;;4.47;;
45136;SDS011;30894;51.740;19.498;2023-07-13T05:00:53;9.65;;;4.32;;
45136;SDS011;30894;51.740;19.498;2023-07-13T05:03:25;7.75;;;5.00;;
45136;SDS011;30894;51.740;19.498;2023-07-13T05:06:02;5.72;;;4.25;;
45136;SDS011;30894;51.740;19.498;2023-07-13T05:08:31;9.52;;;4.88;;
45136;SDS011;30894;51.740;19.498;2023-07-13T05:10:59;7.45;;;4.70;;
45136;SDS011;30894;51.740;19.498;2023-07-13T05:13:26;9.15;;;5.20;;
45136;SDS011;30894;51.740;19.498;2023-07-13T05:15:56;7.45;;;4.32;;
45136;SDS011;30894;51.740;19.498;2023-07-13T05:18:25;8.63;;;4.77;;
45136;SDS011;30894;51.740;19.498;2023-07-13T05:21:01;7.85;;;4.40;;
45136;SDS011;30894;51.740;19.498;2023-07-13T05:23:33;8.88;;;4.30;;
45136;SDS011;30894;51.740;19.498;2023-07-13T05:26:00;11.00;;;5.00;;
45136;SDS011;30894;51.740;19.498;2023-07-13T05:28:28;9.05;;;4.90;;
45136;SDS011;30894;51.740;19.498;2023-07-13T05:30:56;7.43;;;4.30;;
45136;SDS011;30894;51.740;19.498;2023-07-13T05:33:22;8.93;;;4.35;;
45136;SDS011;30894;51.740;19.498;2023-07-13T05:35:49;8.43;;;5.00;;
45136;SDS011;30894;51.740;19.498;2023-07-13T05:38:15;8.55;;;4.40;;
45136;SDS011;30894;51.740;19.498;2023-07-13T05:40:45;8.13;;;5.00;;
45136;SDS011;30894;51.740;19.498;2023-07-13T05:43:11;6.47;;;4.57;;
45136;SDS011;30894;51.740;19.498;2023-07-13T05:45:38;8.27;;;4.68;;
45136;SDS011;30894;51.740;19.498;2023-07-13T05:48:05;11.05;;;4.65;;
45136;SDS011;30894;51.740;19.498;2023-07-13T05:50:31;6.65;;;4.47;;
45136;SDS011;30894;51.740;19.498;2023-07-13T05:52:57;7.43;;;4.68;;
45136;SDS011;30894;51.740;19.498;2023-07-13T05:55:24;11.70;;;5.28;;
45136;SDS011;30894;51.740;19.498;2023-07-13T05:57:50;7.47;;;4.50;;
45136;SDS011;30894;51.740;19.498;2023-07-13T06:00:16;7.57;;;4.82;;
45136;SDS011;30894;51.740;19.498;2023-07-13T06:02:42;7.65;;;4.65;;
45136;SDS011;30894;51.740;19.498;2023-07-13T06:05:09;6.97;;;4.68;;
45136;SDS011;30894;51.740;19.498;2023-07-13T06:07:35;9.57;;;4.43;;
45136;SDS011;30894;51.740;19.498;2023-07-13T06:10:02;9.45;;;4.80;;
45136;SDS011;30894;51.740;19.498;2023-07-13T06:12:28;7.70;;;4.70;;
45136;SDS011;30894;51.740;19.498;2023-07-13T06:14:54;10.63;;;4.80;;
45136;SDS011;30894;51.740;19.498;2023-07-13T06:17:20;9.43;;;4.90;;
45136;SDS011;30894;51.740;19.498;2023-07-13T06:19:46;7.70;;;4.32;;
45136;SDS011;30894;51.740;19.498;2023-07-13T06:22:13;8.43;;;5.30;;
45136;SDS011;30894;51.740;19.498;2023-07-13T06:24:39;10.82;;;5.05;;
45136;SDS011;30894;51.740;19.498;2023-07-13T06:27:06;8.00;;;5.00;;
45136;SDS011;30894;51.740;19.498;2023-07-13T06:29:33;9.38;;;5.25;;
45136;SDS011;30894;51.740;19.498;2023-07-13T06:31:59;8.75;;;4.63;;
45136;SDS011;30894;51.740;19.498;2023-07-13T06:34:26;9.20;;;4.53;;
45136;SDS011;30894;51.740;19.498;2023-07-13T06:36:52;10.10;;;5.35;;
45136;SDS011;30894;51.740;19.498;2023-07-13T06:39:19;8.82;;;5.55;;
45136;SDS011;30894;51.740;19.498;2023-07-13T06:41:45;11.23;;;5.85;;
45136;SDS011;30894;51.740;19.498;2023-07-13T06:44:11;9.68;;;5.22;;
45136;SDS011;30894;51.740;19.498;2023-07-13T06:46:37;11.50;;;5.55;;
45136;SDS011;30894;51.740;19.498;2023-07-13T06:49:03;9.38;;;5.72;;
45136;SDS011;30894;51.740;19.498;2023-07-13T06:51:30;9.40;;;4.85;;
45136;SDS011;30894;51.740;19.498;2023-07-13T06:53:56;7.95;;;4.97;;
45136;SDS011;30894;51.740;19.498;2023-07-13T06:56:22;8.27;;;4.90;;
45136;SDS011;30894;51.740;19.498;2023-07-13T06:58:49;8.27;;;4.82;;
45136;SDS011;30894;51.740;19.498;2023-07-13T07:01:15;8.40;;;5.10;;
45136;SDS011;30894;51.740;19.498;2023-07-13T07:03:41;10.10;;;4.53;;
45136;SDS011;30894;51.740;19.498;2023-07-13T07:06:12;9.27;;;5.13;;
45136;SDS011;30894;51.740;19.498;2023-07-13T07:08:44;10.82;;;5.15;;
45136;SDS011;30894;51.740;19.498;2023-07-13T07:11:15;13.95;;;5.20;;
45136;SDS011;30894;51.740;19.498;2023-07-13T07:13:53;7.20;;;4.43;;
45136;SDS011;30894;51.740;19.498;2023-07-13T07:16:20;10.45;;;4.68;;
45136;SDS011;30894;51.740;19.498;2023-07-13T07:18:46;8.88;;;4.57;;
45136;SDS011;30894;51.740;19.498;2023-07-13T07:21:13;10.55;;;5.15;;
45136;SDS011;30894;51.740;19.498;2023-07-13T07:23:41;9.35;;;4.90;;
45136;SDS011;30894;51.740;19.498;2023-07-13T07:26:08;8.38;;;4.75;;
45136;SDS011;30894;51.740;19.498;2023-07-13T07:28:37;6.70;;;4.88;;
45136;SDS011;30894;51.740;19.498;2023-07-13T07:31:03;9.50;;;5.20;;
45136;SDS011;30894;51.740;19.498;2023-07-13T07:33:29;13.60;;;4.57;;
45136;SDS011;30894;51.740;19.498;2023-07-13T07:35:55;10.30;;;5.25;;
45136;SDS011;30894;51.740;19.498;2023-07-13T07:38:21;8.00;;;4.40;;
45136;SDS011;30894;51.740;19.498;2023-07-13T07:40:48;6.53;;;4.32;;
45136;SDS011;30894;51.740;19.498;2023-07-13T07:43:14;5.82;;;4.38;;
45136;SDS011;30894;51.740;19.498;2023-07-13T07:45:40;14.80;;;5.00;;
45136;SDS011;30894;51.740;19.498;2023-07-13T07:48:06;6.97;;;4.90;;
45136;SDS011;30894;51.740;19.498;2023-07-13T07:50:34;19.33;;;5.10;;
45136;SDS011;30894;51.740;19.498;2023-07-13T07:53:04;6.07;;;3.58;;
45136;SDS011;30894;51.740;19.498;2023-07-13T07:55:35;7.07;;;4.07;;
45136;SDS011;30894;51.740;19.498;2023-07-13T07:58:02;4.53;;;3.30;;
45136;SDS011;30894;51.740;19.498;2023-07-13T08:00:28;11.35;;;3.28;;
45136;SDS011;30894;51.740;19.498;2023-07-13T08:02:57;4.28;;;2.72;;
45136;SDS011;30894;51.740;19.498;2023-07-13T08:05:24;4.50;;;3.38;;
45136;SDS011;30894;51.740;19.498;2023-07-13T08:07:51;6.88;;;2.60;;
45136;SDS011;30894;51.740;19.498;2023-07-13T08:10:17;9.48;;;2.58;;
45136;SDS011;30894;51.740;19.498;2023-07-13T08:12:44;4.20;;;1.90;;
45136;SDS011;30894;51.740;19.498;2023-07-13T08:15:11;2.45;;;1.85;;
45136;SDS011;30894;51.740;19.498;2023-07-13T08:17:41;4.88;;;1.73;;
45136;SDS011;30894;51.740;19.498;2023-07-13T08:20:07;3.67;;;1.73;;
45136;SDS011;30894;51.740;19.498;2023-07-13T08:22:34;1.77;;;1.25;;
45136;SDS011;30894;51.740;19.498;2023-07-13T08:25:01;2.63;;;1.33;;
45136;SDS011;30894;51.740;19.498;2023-07-13T08:27:27;2.20;;;1.58;;
45136;SDS011;30894;51.740;19.498;2023-07-13T08:29:54;1.83;;;1.52;;
45136;SDS011;30894;51.740;19.498;2023-07-13T08:32:21;4.03;;;1.42;;
45136;SDS011;30894;51.740;19.498;2023-07-13T08:34:48;5.32;;;1.00;;
45136;SDS011;30894;51.740;19.498;2023-07-13T08:37:15;1.85;;;0.82;;
45136;SDS011;30894;51.740;19.498;2023-07-13T08:39:42;1.20;;;1.00;;
45136;SDS011;30894;51.740;19.498;2023-07-13T08:42:13;4.13;;;1.20;;
45136;SDS011;30894;51.740;19.498;2023-07-13T08:50:13;1.02;;;0.85;;
45136;SDS011;30894;51.740;19.498;2023-07-13T08:52:43;0.82;;;0.70;;
45136;SDS011;30894;51.740;19.498;2023-07-13T08:55:15;5.45;;;1.13;;
45136;SDS011;30894;51.740;19.498;2023-07-13T08:58:05;1.13;;;0.90;;
45136;SDS011;30894;51.740;19.498;2023-07-13T09:00:48;1.05;;;0.73;;
45136;SDS011;30894;51.740;19.498;2023-07-13T09:04:06;2.15;;;0.90;;
45136;SDS011;30894;51.740;19.498;2023-07-13T09:09:58;1.63;;;0.85;;
45136;SDS011;30894;51.740;19.498;2023-07-13T09:12:56;0.85;;;0.80;;
45136;SDS011;30894;51.740;19.498;2023-07-13T09:15:40;0.82;;;0.77;;
45136;SDS011;30894;51.740;19.498;2023-07-13T09:18:11;1.10;;;0.70;;
45136;SDS011;30894;51.740;19.498;2023-07-13T09:24:17;1.65;;;1.30;;
45136;SDS011;30894;51.740;19.498;2023-07-13T09:26:56;0.90;;;0.52;;
45136;SDS011;30894;51.740;19.498;2023-07-13T09:29:26;0.85;;;0.60;;
45136;SDS011;30894;51.740;19.498;2023-07-13T09:31:58;0.65;;;0.55;;
45136;SDS011;30894;51.740;19.498;2023-07-13T09:34:29;1.48;;;0.82;;
45136;SDS011;30894;51.740;19.498;2023-07-13T09:36:57;0.60;;;0.60;;
45136;SDS011;30894;51.740;19.498;2023-07-13T09:39:31;1.05;;;0.95;;
45136;SDS011;30894;51.740;19.498;2023-07-13T09:47:26;0.77;;;0.77;;
45136;SDS011;30894;51.740;19.498;2023-07-13T09:50:02;1.23;;;0.70;;
45136;SDS011;30894;51.740;19.498;2023-07-13T09:52:40;1.08;;;0.80;;
45136;SDS011;30894;51.740;19.498;2023-07-13T09:55:49;1.75;;;0.75;;
45136;SDS011;30894;51.740;19.498;2023-07-13T09:58:17;1.73;;;0.68;;
45136;SDS011;30894;51.740;19.498;2023-07-13T10:01:03;4.53;;;0.82;;
45136;SDS011;30894;51.740;19.498;2023-07-13T10:03:31;1.05;;;0.95;;
45136;SDS011;30894;51.740;19.498;2023-07-13T10:06:37;1.67;;;1.00;;
45136;SDS011;30894;51.740;19.498;2023-07-13T10:08:56;1.05;;;0.80;;
45136;SDS011;30894;51.740;19.498;2023-07-13T10:11:26;2.17;;;0.88;;
45136;SDS011;30894;51.740;19.498;2023-07-13T10:16:23;0.93;;;0.73;;
45136;SDS011;30894;51.740;19.498;2023-07-13T10:18:56;1.92;;;0.82;;
45136;SDS011;30894;51.740;19.498;2023-07-13T10:21:28;0.90;;;0.90;;
45136;SDS011;30894;51.740;19.498;2023-07-13T10:24:04;2.28;;;1.00;;
45136;SDS011;30894;51.740;19.498;2023-07-13T10:29:52;1.10;;;0.90;;
45136;SDS011;30894;51.740;19.498;2023-07-13T10:32:34;0.98;;;0.98;;
45136;SDS011;30894;51.740;19.498;2023-07-13T10:35:01;1.38;;;0.80;;
45136;SDS011;30894;51.740;19.498;2023-07-13T10:37:29;1.35;;;1.17;;
45136;SDS011;30894;51.740;19.498;2023-07-13T10:40:27;0.90;;;0.73;;
45136;SDS011;30894;51.740;19.498;2023-07-13T10:43:13;3.70;;;1.15;;
45136;SDS011;30894;51.740;19.498;2023-07-13T10:45:55;3.13;;;1.05;;
45136;SDS011;30894;51.740;19.498;2023-07-13T10:48:23;1.02;;;0.82;;
45136;SDS011;30894;51.740;19.498;2023-07-13T10:50:50;3.53;;;1.05;;
45136;SDS011;30894;51.740;19.498;2023-07-13T10:53:22;2.63;;;1.05;;
45136;SDS011;30894;51.740;19.498;2023-07-13T10:58:38;1.33;;;0.93;;
45136;SDS011;30894;51.740;19.498;2023-07-13T11:01:09;4.78;;;1.10;;
45136;SDS011;30894;51.740;19.498;2023-07-13T11:04:01;3.38;;;1.23;;
45136;SDS011;30894;51.740;19.498;2023-07-13T11:14:36;2.25;;;1.02;;
45136;SDS011;30894;51.740;19.498;2023-07-13T11:20:40;0.95;;;0.73;;
45136;SDS011;30894;51.740;19.498;2023-07-13T11:25:42;1.42;;;1.00;;
45136;SDS011;30894;51.740;19.498;2023-07-13T11:38:38;1.40;;;1.30;;
45136;SDS011;30894;51.740;19.498;2023-07-13T11:43:40;2.63;;;1.30;;
45136;SDS011;30894;51.740;19.498;2023-07-13T11:46:43;2.17;;;1.20;;
45136;SDS011;30894;51.740;19.498;2023-07-13T11:48:59;2.67;;;1.13;;
45136;SDS011;30894;51.740;19.498;2023-07-13T11:51:26;3.03;;;1.67;;
45136;SDS011;30894;51.740;19.498;2023-07-13T11:54:00;3.83;;;1.23;;
45136;SDS011;30894;51.740;19.498;2023-07-13T11:56:43;1.25;;;1.10;;
45136;SDS011;30894;51.740;19.498;2023-07-13T11:59:13;2.78;;;1.45;;
45136;SDS011;30894;51.740;19.498;2023-07-13T12:01:48;1.42;;;0.98;;
45136;SDS011;30894;51.740;19.498;2023-07-13T12:04:22;11.90;;;1.23;;
45136;SDS011;30894;51.740;19.498;2023-07-13T12:07:11;1.45;;;1.00;;
45136;SDS011;30894;51.740;19.498;2023-07-13T12:09:42;3.22;;;1.20;;
45136;SDS011;30894;51.740;19.498;2023-07-13T12:12:17;4.00;;;1.00;;
45136;SDS011;30894;51.740;19.498;2023-07-13T12:14:46;1.67;;;1.27;;
45136;SDS011;30894;51.740;19.498;2023-07-13T12:17:23;2.75;;;1.52;;
45136;SDS011;30894;51.740;19.498;2023-07-13T12:19:51;2.95;;;1.45;;
45136;SDS011;30894;51.740;19.498;2023-07-13T12:22:19;4.03;;;1.42;;
45136;SDS011;30894;51.740;19.498;2023-07-13T12:24:48;2.58;;;1.65;;
45136;SDS011;30894;51.740;19.498;2023-07-13T12:27:24;2.90;;;1.50;;
45136;SDS011;30894;51.740;19.498;2023-07-13T12:30:01;1.37;;;1.27;;
45136;SDS011;30894;51.740;19.498;2023-07-13T12:32:31;3.67;;;1.20;;
45136;SDS011;30894;51.740;19.498;2023-07-13T12:35:07;2.17;;;1.35;;
45136;SDS011;30894;51.740;19.498;2023-07-13T12:37:42;3.83;;;1.42;;
45136;SDS011;30894;51.740;19.498;2023-07-13T12:40:14;2.10;;;1.58;;
45136;SDS011;30894;51.740;19.498;2023-07-13T12:42:46;4.03;;;1.40;;
45136;SDS011;30894;51.740;19.498;2023-07-13T12:45:19;3.15;;;1.55;;
45136;SDS011;30894;51.740;19.498;2023-07-13T12:47:54;1.90;;;1.25;;
45136;SDS011;30894;51.740;19.498;2023-07-13T12:50:38;3.45;;;1.67;;
45136;SDS011;30894;51.740;19.498;2023-07-13T12:53:13;0.95;;;0.85;;
45136;SDS011;30894;51.740;19.498;2023-07-13T12:55:52;4.65;;;1.50;;
45136;SDS011;30894;51.740;19.498;2023-07-13T12:58:29;2.78;;;1.40;;
45136;SDS011;30894;51.740;19.498;2023-07-13T13:01:12;1.17;;;1.08;;
45136;SDS011;30894;51.740;19.498;2023-07-13T13:03:44;3.88;;;1.10;;
45136;SDS011;30894;51.740;19.498;2023-07-13T13:06:21;4.97;;;1.42;;
45136;SDS011;30894;51.740;19.498;2023-07-13T13:08:58;2.88;;;1.40;;
45136;SDS011;30894;51.740;19.498;2023-07-13T13:11:25;1.52;;;1.13;;
45136;SDS011;30894;51.740;19.498;2023-07-13T13:13:54;1.85;;;1.05;;
45136;SDS011;30894;51.740;19.498;2023-07-13T13:18:53;2.97;;;1.73;;
45136;SDS011;30894;51.740;19.498;2023-07-13T13:21:22;3.17;;;1.83;;
45136;SDS011;30894;51.740;19.498;2023-07-13T13:23:50;1.52;;;1.42;;
45136;SDS011;30894;51.740;19.498;2023-07-13T13:26:18;2.20;;;1.30;;
45136;SDS011;30894;51.740;19.498;2023-07-13T13:28:45;4.22;;;1.42;;
45136;SDS011;30894;51.740;19.498;2023-07-13T13:31:12;0.82;;;0.82;;
45136;SDS011;30894;51.740;19.498;2023-07-13T13:33:41;2.25;;;1.08;;
45136;SDS011;30894;51.740;19.498;2023-07-13T13:36:13;1.10;;;0.98;;
45136;SDS011;30894;51.740;19.498;2023-07-13T13:38:45;3.58;;;1.45;;
45136;SDS011;30894;51.740;19.498;2023-07-13T13:41:13;3.25;;;1.35;;
45136;SDS011;30894;51.740;19.498;2023-07-13T13:43:41;0.80;;;0.73;;
45136;SDS011;30894;51.740;19.498;2023-07-13T13:46:14;1.27;;;1.05;;
45136;SDS011;30894;51.740;19.498;2023-07-13T13:48:50;1.92;;;1.23;;
45136;SDS011;30894;51.740;19.498;2023-07-13T13:51:20;1.70;;;1.33;;
45136;SDS011;30894;51.740;19.498;2023-07-13T13:53:50;6.85;;;1.27;;
45136;SDS011;30894;51.740;19.498;2023-07-13T13:56:17;2.28;;;1.20;;
45136;SDS011;30894;51.740;19.498;2023-07-13T13:58:45;1.50;;;1.40;;
45136;SDS011;30894;51.740;19.498;2023-07-13T14:01:19;2.85;;;1.13;;
45136;SDS011;30894;51.740;19.498;2023-07-13T14:03:48;1.45;;;0.80;;
45136;SDS011;30894;51.740;19.498;2023-07-13T14:06:16;1.45;;;1.00;;
45136;SDS011;30894;51.740;19.498;2023-07-13T14:08:43;1.60;;;0.90;;
45136;SDS011;30894;51.740;19.498;2023-07-13T14:11:11;3.13;;;1.27;;
45136;SDS011;30894;51.740;19.498;2023-07-13T14:13:44;2.50;;;1.35;;
45136;SDS011;30894;51.740;19.498;2023-07-13T14:16:17;1.23;;;1.13;;
45136;SDS011;30894;51.740;19.498;2023-07-13T14:18:46;2.72;;;1.58;;
45136;SDS011;30894;51.740;19.498;2023-07-13T14:21:15;3.20;;;1.10;;
45136;SDS011;30894;51.740;19.498;2023-07-13T14:23:45;1.70;;;1.33;;
45136;SDS011;30894;51.740;19.498;2023-07-13T14:26:19;1.85;;;1.20;;
45136;SDS011;30894;51.740;19.498;2023-07-13T14:28:50;1.92;;;1.58;;
45136;SDS011;30894;51.740;19.498;2023-07-13T14:31:21;1.83;;;1.10;;
45136;SDS011;30894;51.740;19.498;2023-07-13T14:33:50;2.53;;;1.17;;
45136;SDS011;30894;51.740;19.498;2023-07-13T14:39:01;1.85;;;1.40;;
45136;SDS011;30894;51.740;19.498;2023-07-13T14:41:37;1.17;;;1.08;;
45136;SDS011;30894;51.740;19.498;2023-07-13T14:44:24;1.88;;;1.30;;
45136;SDS011;30894;51.740;19.498;2023-07-13T14:46:54;1.88;;;1.40;;
45136;SDS011;30894;51.740;19.498;2023-07-13T14:51:52;3.83;;;1.52;;
45136;SDS011;30894;51.740;19.498;2023-07-13T14:54:19;3.10;;;1.67;;
45136;SDS011;30894;51.740;19.498;2023-07-13T14:56:45;2.28;;;1.38;;
45136;SDS011;30894;51.740;19.498;2023-07-13T14:59:11;3.80;;;1.63;;
45136;SDS011;30894;51.740;19.498;2023-07-13T15:01:39;2.40;;;1.40;;
45136;SDS011;30894;51.740;19.498;2023-07-13T15:04:08;2.15;;;1.35;;
45136;SDS011;30894;51.740;19.498;2023-07-13T15:06:57;3.08;;;1.60;;
45136;SDS011;30894;51.740;19.498;2023-07-13T15:09:27;1.30;;;1.13;;
45136;SDS011;30894;51.740;19.498;2023-07-13T15:11:54;1.77;;;1.15;;
45136;SDS011;30894;51.740;19.498;2023-07-13T15:14:22;5.55;;;1.60;;
45136;SDS011;30894;51.740;19.498;2023-07-13T15:16:51;2.00;;;1.30;;
45136;SDS011;30894;51.740;19.498;2023-07-13T15:19:19;4.50;;;1.67;;
45136;SDS011;30894;51.740;19.498;2023-07-13T15:21:49;1.75;;;1.45;;
45136;SDS011;30894;51.740;19.498;2023-07-13T15:24:21;3.03;;;1.60;;
45136;SDS011;30894;51.740;19.498;2023-07-13T15:26:47;3.28;;;1.50;;
45136;SDS011;30894;51.740;19.498;2023-07-13T15:29:15;3.55;;;2.00;;
45136;SDS011;30894;51.740;19.498;2023-07-13T15:31:43;2.45;;;1.80;;
45136;SDS011;30894;51.740;19.498;2023-07-13T15:34:24;3.38;;;1.55;;
45136;SDS011;30894;51.740;19.498;2023-07-13T15:36:51;3.15;;;1.50;;
45136;SDS011;30894;51.740;19.498;2023-07-13T15:39:18;3.80;;;2.20;;
45136;SDS011;30894;51.740;19.498;2023-07-13T15:41:44;7.10;;;2.97;;
45136;SDS011;30894;51.740;19.498;2023-07-13T15:44:28;1.80;;;1.63;;
45136;SDS011;30894;51.740;19.498;2023-07-13T15:46:56;3.05;;;2.00;;
45136;SDS011;30894;51.740;19.498;2023-07-13T15:49:22;3.75;;;1.60;;
45136;SDS011;30894;51.740;19.498;2023-07-13T15:51:49;6.78;;;1.80;;